createdAt,value
2016-09-19T00:00:30.371Z,1018.59
2016-09-19T00:01:31.015Z,1018.61
2016-09-19T00:02:31.683Z,1018.59
2016-09-19T00:03:32.306Z,1018.63
2016-09-19T00:04:32.946Z,1018.63
2016-09-19T00:05:33.603Z,1018.63
2016-09-19T00:06:34.277Z,1018.6
2016-09-19T00:07:34.911Z,1018.63
2016-09-19T00:08:35.570Z,1018.59
2016-09-19T00:09:36.223Z,1018.61
2016-09-19T00:10:36.875Z,1018.62
2016-09-19T00:11:37.525Z,1018.6
2016-09-19T00:12:38.180Z,1018.61
2016-09-19T00:13:38.844Z,1018.62
2016-09-19T00:14:39.563Z,1018.65
2016-09-19T00:15:40.227Z,1018.61
2016-09-19T00:16:40.891Z,1018.64
2016-09-19T00:17:41.546Z,1018.62
2016-09-19T00:18:42.198Z,1018.61
2016-09-19T00:19:42.856Z,1018.63
2016-09-19T00:20:43.510Z,1018.62
2016-09-19T00:21:44.187Z,1018.62
2016-09-19T00:22:44.828Z,1018.63
2016-09-19T00:23:45.478Z,1018.63
2016-09-19T00:24:46.121Z,1018.63
2016-09-19T00:25:46.767Z,1018.63
2016-09-19T00:26:47.417Z,1018.62
2016-09-19T00:27:48.094Z,1018.59
2016-09-19T00:28:48.760Z,1018.59
2016-09-19T00:29:49.382Z,1018.57
2016-09-19T00:30:50.043Z,1018.59
2016-09-19T00:31:50.704Z,1018.56
2016-09-19T00:32:51.346Z,1018.53
2016-09-19T00:33:51.971Z,1018.53
2016-09-19T00:34:52.630Z,1018.56
2016-09-19T00:35:53.286Z,1018.52
2016-09-19T00:36:53.917Z,1018.53
2016-09-19T00:37:54.553Z,1018.55
2016-09-19T00:38:55.211Z,1018.56
2016-09-19T00:39:55.850Z,1018.54
2016-09-19T00:40:56.498Z,1018.53
2016-09-19T00:41:57.148Z,1018.55
2016-09-19T00:42:57.793Z,1018.57
2016-09-19T00:43:58.428Z,1018.56
2016-09-19T00:44:59.082Z,1018.56
2016-09-19T00:45:59.761Z,1018.54
2016-09-19T00:47:00.396Z,1018.56
2016-09-19T00:48:01.050Z,1018.56
2016-09-19T00:49:01.694Z,1018.57
2016-09-19T00:50:02.360Z,1018.57
2016-09-19T00:51:02.990Z,1018.58
2016-09-19T00:52:03.662Z,1018.58
2016-09-19T00:53:04.282Z,1018.61
2016-09-19T00:54:04.940Z,1018.58
2016-09-19T00:55:05.600Z,1018.59
2016-09-19T00:56:06.242Z,1018.61
2016-09-19T00:57:06.892Z,1018.61
2016-09-19T00:58:07.535Z,1018.54
2016-09-19T00:59:08.221Z,1018.57
2016-09-19T01:00:08.880Z,1018.54
2016-09-19T01:01:09.522Z,1018.56
2016-09-19T01:02:10.183Z,1018.59
2016-09-19T01:03:10.835Z,1018.57
2016-09-19T01:04:11.465Z,1018.55
2016-09-19T01:05:12.128Z,1018.51
2016-09-19T01:06:12.789Z,1018.56
2016-09-19T01:07:13.423Z,1018.57
2016-09-19T01:08:14.052Z,1018.56
2016-09-19T01:09:14.700Z,1018.57
2016-09-19T01:10:15.334Z,1018.61
2016-09-19T01:11:15.990Z,1018.55
2016-09-19T01:12:16.627Z,1018.57
2016-09-19T01:13:17.270Z,1018.57
2016-09-19T01:14:17.938Z,1018.56
2016-09-19T01:15:18.586Z,1018.59
2016-09-19T01:16:19.224Z,1018.59
2016-09-19T01:17:19.895Z,1018.6
2016-09-19T01:18:20.548Z,1018.57
2016-09-19T01:19:21.189Z,1018.54
2016-09-19T01:20:21.875Z,1018.56
2016-09-19T01:21:22.510Z,1018.56
2016-09-19T01:22:23.146Z,1018.55
2016-09-19T01:23:23.789Z,1018.59
2016-09-19T01:24:24.438Z,1018.55
2016-09-19T01:25:25.072Z,1018.53
2016-09-19T01:26:25.735Z,1018.57
2016-09-19T01:27:26.366Z,1018.56
2016-09-19T01:28:27.000Z,1018.56
2016-09-19T01:29:27.651Z,1018.5
2016-09-19T01:30:28.279Z,1018.54
2016-09-19T01:31:28.942Z,1018.52
2016-09-19T01:32:29.605Z,1018.51
2016-09-19T01:33:30.244Z,1018.5
2016-09-19T01:34:30.892Z,1018.47
2016-09-19T01:35:31.531Z,1018.5
2016-09-19T01:36:32.167Z,1018.51
2016-09-19T01:37:32.809Z,1018.53
2016-09-19T01:38:33.467Z,1018.51
2016-09-19T01:39:34.106Z,1018.55
2016-09-19T01:40:34.764Z,1018.55
2016-09-19T01:41:35.409Z,1018.51
2016-09-19T01:42:36.039Z,1018.53
2016-09-19T01:43:36.670Z,1018.5
2016-09-19T01:44:37.415Z,1018.57
2016-09-19T01:45:38.072Z,1018.53
2016-09-19T01:46:38.719Z,1018.53
2016-09-19T01:47:39.354Z,1018.53
2016-09-19T01:48:40.001Z,1018.51
2016-09-19T01:49:40.659Z,1018.49
2016-09-19T01:50:41.300Z,1018.5
2016-09-19T01:51:41.945Z,1018.54
2016-09-19T01:52:42.578Z,1018.5
2016-09-19T01:53:43.211Z,1018.48
2016-09-19T01:54:43.866Z,1018.47
2016-09-19T01:55:44.510Z,1018.47
2016-09-19T01:56:45.133Z,1018.5
2016-09-19T01:57:45.787Z,1018.51
2016-09-19T01:58:46.430Z,1018.48
2016-09-19T01:59:47.061Z,1018.47
2016-09-19T02:00:47.699Z,1018.45
2016-09-19T02:01:48.335Z,1018.46
2016-09-19T02:02:48.978Z,1018.49
2016-09-19T02:03:49.653Z,1018.46
2016-09-19T02:04:50.293Z,1018.49
2016-09-19T02:05:50.953Z,1018.45
2016-09-19T02:06:51.620Z,1018.49
2016-09-19T02:07:52.268Z,1018.52
2016-09-19T02:08:52.914Z,1018.52
2016-09-19T02:09:53.548Z,1018.53
2016-09-19T02:10:54.205Z,1018.5
2016-09-19T02:11:54.846Z,1018.54
2016-09-19T02:12:55.490Z,1018.55
2016-09-19T02:13:56.133Z,1018.54
2016-09-19T02:14:56.790Z,1018.52
2016-09-19T02:15:57.427Z,1018.54
2016-09-19T02:16:58.081Z,1018.52
2016-09-19T02:17:58.725Z,1018.55
2016-09-19T02:18:59.377Z,1018.54
2016-09-19T02:20:00.020Z,1018.51
2016-09-19T02:21:00.685Z,1018.55
2016-09-19T02:22:01.339Z,1018.52
2016-09-19T02:23:01.983Z,1018.49
2016-09-19T02:24:02.646Z,1018.53
2016-09-19T02:25:03.307Z,1018.52
2016-09-19T02:26:03.951Z,1018.55
2016-09-19T02:27:04.604Z,1018.53
2016-09-19T02:28:05.240Z,1018.51
2016-09-19T02:29:05.905Z,1018.51
2016-09-19T02:30:06.535Z,1018.52
2016-09-19T02:31:07.193Z,1018.55
2016-09-19T02:32:07.815Z,1018.53
2016-09-19T02:33:08.495Z,1018.53
2016-09-19T02:34:09.143Z,1018.51
2016-09-19T02:35:09.785Z,1018.54
2016-09-19T02:36:10.420Z,1018.57
2016-09-19T02:37:11.100Z,1018.53
2016-09-19T02:38:11.731Z,1018.5
2016-09-19T02:39:12.367Z,1018.51
2016-09-19T02:40:13.014Z,1018.52
2016-09-19T02:41:13.651Z,1018.53
2016-09-19T02:42:14.300Z,1018.54
2016-09-19T02:43:14.944Z,1018.55
2016-09-19T02:44:15.623Z,1018.55
2016-09-19T02:45:16.253Z,1018.55
2016-09-19T02:46:16.898Z,1018.53
2016-09-19T02:47:17.540Z,1018.59
2016-09-19T02:48:18.176Z,1018.6
2016-09-19T02:49:18.816Z,1018.59
2016-09-19T02:50:19.460Z,1018.59
2016-09-19T02:51:20.097Z,1018.57
2016-09-19T02:52:20.759Z,1018.59
2016-09-19T02:53:21.409Z,1018.58
2016-09-19T02:54:22.044Z,1018.6
2016-09-19T02:55:22.670Z,1018.61
2016-09-19T02:56:23.318Z,1018.62
2016-09-19T02:57:23.951Z,1018.64
2016-09-19T02:58:24.609Z,1018.59
2016-09-19T02:59:25.272Z,1018.62
2016-09-19T03:00:25.900Z,1018.63
2016-09-19T03:01:26.545Z,1018.62
2016-09-19T03:02:27.177Z,1018.64
2016-09-19T03:03:27.814Z,1018.69
2016-09-19T03:04:28.460Z,1018.69
2016-09-19T03:05:29.095Z,1018.65
2016-09-19T03:06:29.733Z,1018.69
2016-09-19T03:07:30.372Z,1018.68
2016-09-19T03:08:31.016Z,1018.66
2016-09-19T03:09:31.676Z,1018.69
2016-09-19T03:10:32.301Z,1018.68
2016-09-19T03:11:32.957Z,1018.68
2016-09-19T03:12:33.606Z,1018.65
2016-09-19T03:13:34.258Z,1018.67
2016-09-19T03:14:34.887Z,1018.68
2016-09-19T03:15:35.518Z,1018.7
2016-09-19T03:16:36.205Z,1018.69
2016-09-19T03:17:36.863Z,1018.67
2016-09-19T03:18:37.510Z,1018.68
2016-09-19T03:19:38.166Z,1018.72
2016-09-19T03:20:38.837Z,1018.69
2016-09-19T03:21:39.496Z,1018.7
2016-09-19T03:22:40.133Z,1018.69
2016-09-19T03:23:40.781Z,1018.67
2016-09-19T03:24:41.459Z,1018.7
2016-09-19T03:25:42.097Z,1018.71
2016-09-19T03:26:42.744Z,1018.68
2016-09-19T03:27:43.382Z,1018.68
2016-09-19T03:28:44.032Z,1018.66
2016-09-19T03:29:44.665Z,1018.71
2016-09-19T03:30:45.301Z,1018.67
2016-09-19T03:31:45.924Z,1018.68
2016-09-19T03:32:46.587Z,1018.67
2016-09-19T03:33:47.262Z,1018.65
2016-09-19T03:34:47.911Z,1018.66
2016-09-19T03:35:48.553Z,1018.65
2016-09-19T03:36:49.234Z,1018.66
2016-09-19T03:37:49.864Z,1018.66
2016-09-19T03:38:50.520Z,1018.67
2016-09-19T03:39:51.162Z,1018.68
2016-09-19T03:40:51.797Z,1018.63
2016-09-19T03:41:52.433Z,1018.68
2016-09-19T03:42:53.075Z,1018.68
2016-09-19T03:43:53.718Z,1018.67
2016-09-19T03:44:54.353Z,1018.67
2016-09-19T03:45:54.990Z,1018.72
2016-09-19T03:46:55.623Z,1018.69
2016-09-19T03:47:56.267Z,1018.65
2016-09-19T03:48:56.929Z,1018.69
2016-09-19T03:49:57.566Z,1018.67
2016-09-19T03:50:58.209Z,1018.67
2016-09-19T03:51:58.851Z,1018.67
2016-09-19T03:52:59.489Z,1018.7
2016-09-19T03:54:00.132Z,1018.65
2016-09-19T03:55:00.768Z,1018.72
2016-09-19T03:56:01.421Z,1018.75
2016-09-19T03:57:02.060Z,1018.72
2016-09-19T03:58:02.711Z,1018.76
2016-09-19T03:59:03.350Z,1018.77
2016-09-19T04:00:03.979Z,1018.79
2016-09-19T04:01:04.623Z,1018.82
2016-09-19T04:02:05.257Z,1018.81
2016-09-19T04:03:05.885Z,1018.77
2016-09-19T04:04:06.539Z,1018.84
2016-09-19T04:05:07.190Z,1018.8
2016-09-19T04:06:07.862Z,1018.83
2016-09-19T04:07:08.508Z,1018.81
2016-09-19T04:08:09.162Z,1018.81
2016-09-19T04:09:09.807Z,1018.8
2016-09-19T04:10:10.432Z,1018.83
2016-09-19T04:11:11.064Z,1018.78
2016-09-19T04:12:11.708Z,1018.81
2016-09-19T04:13:12.365Z,1018.82
2016-09-19T04:14:13.002Z,1018.83
2016-09-19T04:15:13.644Z,1018.85
2016-09-19T04:16:14.295Z,1018.83
2016-09-19T04:17:14.923Z,1018.8
2016-09-19T04:18:15.573Z,1018.87
2016-09-19T04:19:16.222Z,1018.85
2016-09-19T04:20:16.863Z,1018.81
2016-09-19T04:21:17.509Z,1018.83
2016-09-19T04:22:18.139Z,1018.79
2016-09-19T04:23:18.785Z,1018.83
2016-09-19T04:24:19.426Z,1018.82
2016-09-19T04:25:20.075Z,1018.83
2016-09-19T04:26:20.718Z,1018.81
2016-09-19T04:27:21.368Z,1018.82
2016-09-19T04:28:22.006Z,1018.82
2016-09-19T04:29:22.639Z,1018.83
2016-09-19T04:30:23.269Z,1018.77
2016-09-19T04:31:23.915Z,1018.85
2016-09-19T04:32:24.547Z,1018.84
2016-09-19T04:33:25.192Z,1018.87
2016-09-19T04:34:25.836Z,1018.85
2016-09-19T04:35:26.480Z,1018.82
2016-09-19T04:36:27.121Z,1018.83
2016-09-19T04:37:27.767Z,1018.82
2016-09-19T04:38:28.422Z,1018.84
2016-09-19T04:39:29.062Z,1018.86
2016-09-19T04:40:29.728Z,1018.82
2016-09-19T04:41:30.384Z,1018.86
2016-09-19T04:42:31.030Z,1018.84
2016-09-19T04:43:31.678Z,1018.83
2016-09-19T04:44:32.316Z,1018.83
2016-09-19T04:45:32.969Z,1018.82
2016-09-19T04:46:33.614Z,1018.79
2016-09-19T04:47:34.259Z,1018.84
2016-09-19T04:48:34.906Z,1018.83
2016-09-19T04:49:35.533Z,1018.82
2016-09-19T04:50:36.180Z,1018.83
2016-09-19T04:51:36.815Z,1018.83
2016-09-19T04:52:37.495Z,1018.85
2016-09-19T04:53:38.157Z,1018.81
2016-09-19T04:54:38.796Z,1018.79
2016-09-19T04:55:39.468Z,1018.8
2016-09-19T04:56:40.106Z,1018.8
2016-09-19T04:57:40.747Z,1018.79
2016-09-19T04:58:41.402Z,1018.76
2016-09-19T04:59:42.042Z,1018.81
2016-09-19T05:00:42.698Z,1018.81
2016-09-19T05:01:43.345Z,1018.77
2016-09-19T05:02:44.008Z,1018.81
2016-09-19T05:03:44.641Z,1018.77
2016-09-19T05:04:45.292Z,1018.79
2016-09-19T05:05:45.945Z,1018.87
2016-09-19T05:06:46.598Z,1018.83
2016-09-19T05:07:47.243Z,1018.81
2016-09-19T05:08:47.887Z,1018.81
2016-09-19T05:09:48.533Z,1018.8
2016-09-19T05:10:49.165Z,1018.87
2016-09-19T05:11:49.801Z,1018.91
2016-09-19T05:12:50.446Z,1018.87
2016-09-19T05:13:51.096Z,1018.93
2016-09-19T05:14:51.741Z,1018.92
2016-09-19T05:15:52.393Z,1018.9
2016-09-19T05:16:53.032Z,1018.88
2016-09-19T05:17:53.677Z,1018.86
2016-09-19T05:18:54.305Z,1018.88
2016-09-19T05:19:54.948Z,1018.87
2016-09-19T05:20:55.595Z,1018.85
2016-09-19T05:21:56.235Z,1018.92
2016-09-19T05:22:56.887Z,1018.88
2016-09-19T05:23:57.523Z,1018.88
2016-09-19T05:24:58.157Z,1018.88
2016-09-19T05:25:58.832Z,1018.89
2016-09-19T05:26:59.470Z,1018.9
2016-09-19T05:28:00.115Z,1018.87
2016-09-19T05:29:00.757Z,1018.85
2016-09-19T05:30:01.429Z,1018.87
2016-09-19T05:31:02.082Z,1018.86
2016-09-19T05:32:02.765Z,1018.91
2016-09-19T05:33:03.406Z,1018.86
2016-09-19T05:34:04.047Z,1018.87
2016-09-19T05:35:04.683Z,1018.87
2016-09-19T05:36:05.331Z,1018.91
2016-09-19T05:37:05.984Z,1018.94
2016-09-19T05:38:06.616Z,1018.9
2016-09-19T05:39:07.259Z,1018.87
2016-09-19T05:40:07.923Z,1018.89
2016-09-19T05:41:08.572Z,1018.91
2016-09-19T05:42:09.214Z,1018.95
2016-09-19T05:43:09.847Z,1018.92
2016-09-19T05:44:10.516Z,1018.99
2016-09-19T05:45:11.176Z,1018.92
2016-09-19T05:46:11.826Z,1018.99
2016-09-19T05:47:12.471Z,1018.96
2016-09-19T05:48:13.119Z,1018.96
2016-09-19T05:49:13.764Z,1018.95
2016-09-19T05:50:14.395Z,1019.02
2016-09-19T05:51:15.045Z,1018.99
2016-09-19T05:52:15.679Z,1019.04
2016-09-19T05:53:16.321Z,1019
2016-09-19T05:54:16.969Z,1019.03
2016-09-19T05:55:17.615Z,1019.05
2016-09-19T05:56:18.253Z,1019.06
2016-09-19T05:57:18.908Z,1019.05
2016-09-19T05:58:19.583Z,1019.03
2016-09-19T05:59:20.238Z,1019.04
2016-09-19T06:00:20.873Z,1019.07
2016-09-19T06:01:21.551Z,1019.1
2016-09-19T06:02:22.194Z,1019.06
2016-09-19T06:03:22.840Z,1019.12
2016-09-19T06:04:23.478Z,1019.11
2016-09-19T06:05:24.134Z,1019.11
2016-09-19T06:06:24.774Z,1019.1
2016-09-19T06:07:25.432Z,1019.12
2016-09-19T06:08:26.073Z,1019.11
2016-09-19T06:09:26.727Z,1019.16
2016-09-19T06:10:27.371Z,1019.17
2016-09-19T06:11:28.061Z,1019.18
2016-09-19T06:12:28.702Z,1019.12
2016-09-19T06:13:29.347Z,1019.06
2016-09-19T06:14:29.990Z,1019.05
2016-09-19T06:15:30.637Z,1019.06
2016-09-19T06:16:31.277Z,1019.05
2016-09-19T06:17:31.922Z,1019.07
2016-09-19T06:18:32.589Z,1019.06
2016-09-19T06:19:33.231Z,1019.07
2016-09-19T06:20:33.882Z,1019.07
2016-09-19T06:21:34.521Z,1019.08
2016-09-19T06:22:35.165Z,1019.1
2016-09-19T06:23:35.810Z,1019.08
2016-09-19T06:24:36.467Z,1019.09
2016-09-19T06:25:37.115Z,1019.06
2016-09-19T06:26:37.755Z,1019.06
2016-09-19T06:27:38.401Z,1019.08
2016-09-19T06:28:39.050Z,1019.05
2016-09-19T06:29:39.698Z,1019.09
2016-09-19T06:30:40.339Z,1019.07
2016-09-19T06:31:41.041Z,1019.09
2016-09-19T06:32:41.700Z,1019.08
2016-09-19T06:33:42.354Z,1019.11
2016-09-19T06:34:43.021Z,1019.1
2016-09-19T06:35:43.673Z,1019.08
2016-09-19T06:36:44.318Z,1019.14
2016-09-19T06:37:44.974Z,1019.12
2016-09-19T06:38:45.626Z,1019.12
2016-09-19T06:39:46.261Z,1019.08
2016-09-19T06:40:46.903Z,1019.07
2016-09-19T06:41:47.541Z,1019.14
2016-09-19T06:42:48.188Z,1019.13
2016-09-19T06:43:48.851Z,1019.12
2016-09-19T06:44:49.491Z,1019.13
2016-09-19T06:45:50.140Z,1019.22
2016-09-19T06:46:50.776Z,1019.21
2016-09-19T06:47:51.424Z,1019.23
2016-09-19T06:48:52.079Z,1019.21
2016-09-19T06:49:52.737Z,1019.22
2016-09-19T06:50:53.448Z,1019.21
2016-09-19T06:51:54.103Z,1019.23
2016-09-19T06:52:54.757Z,1019.29
2016-09-19T06:53:55.411Z,1019.21
2016-09-19T06:54:56.061Z,1019.25
2016-09-19T06:55:56.698Z,1019.26
2016-09-19T06:56:57.368Z,1019.22
2016-09-19T06:57:58.041Z,1019.23
2016-09-19T06:58:58.696Z,1019.23
2016-09-19T06:59:59.357Z,1019.24
2016-09-19T07:00:59.988Z,1019.24
2016-09-19T07:02:00.643Z,1019.26
2016-09-19T07:03:01.366Z,1019.27
2016-09-19T07:04:02.062Z,1019.24
2016-09-19T07:05:02.739Z,1019.26
2016-09-19T07:06:03.397Z,1019.27
2016-09-19T07:07:04.037Z,1019.31
2016-09-19T07:08:04.693Z,1019.31
2016-09-19T07:09:05.351Z,1019.29
2016-09-19T07:10:05.997Z,1019.29
2016-09-19T07:11:06.655Z,1019.32
2016-09-19T07:12:07.364Z,1019.35
2016-09-19T07:13:08.032Z,1019.3
2016-09-19T07:14:08.677Z,1019.3
2016-09-19T07:15:09.390Z,1019.3
2016-09-19T07:16:10.050Z,1019.28
2016-09-19T07:17:10.710Z,1019.31
2016-09-19T07:18:11.391Z,1019.29
2016-09-19T07:19:12.052Z,1019.35
2016-09-19T07:20:12.703Z,1019.32
2016-09-19T07:21:13.347Z,1019.35
2016-09-19T07:22:14.004Z,1019.38
2016-09-19T07:23:14.658Z,1019.38
2016-09-19T07:24:15.309Z,1019.42
2016-09-19T07:25:15.971Z,1019.42
2016-09-19T07:26:16.674Z,1019.43
2016-09-19T07:27:17.331Z,1019.44
2016-09-19T07:28:17.979Z,1019.44
2016-09-19T07:29:18.622Z,1019.44
2016-09-19T07:30:19.261Z,1019.46
2016-09-19T07:31:19.914Z,1019.45
2016-09-19T07:32:20.574Z,1019.46
2016-09-19T07:33:21.228Z,1019.48
2016-09-19T07:34:21.928Z,1019.46
2016-09-19T07:35:22.600Z,1019.49
2016-09-19T07:36:23.266Z,1019.51
2016-09-19T07:37:23.899Z,1019.48
2016-09-19T07:38:24.590Z,1019.52
2016-09-19T07:39:25.231Z,1019.49
2016-09-19T07:40:25.887Z,1019.52
2016-09-19T07:41:26.534Z,1019.5
2016-09-19T07:42:27.185Z,1019.5
2016-09-19T07:43:27.859Z,1019.53
2016-09-19T07:44:28.507Z,1019.52
2016-09-19T07:45:29.153Z,1019.52
2016-09-19T07:46:29.815Z,1019.56
2016-09-19T07:47:30.460Z,1019.56
2016-09-19T07:48:31.110Z,1019.6
2016-09-19T07:49:31.785Z,1019.55
2016-09-19T07:50:32.434Z,1019.59
2016-09-19T07:51:33.075Z,1019.59
2016-09-19T07:52:33.732Z,1019.6
2016-09-19T07:53:34.381Z,1019.6
2016-09-19T07:54:35.028Z,1019.65
2016-09-19T07:55:35.673Z,1019.68
2016-09-19T07:56:36.348Z,1019.68
2016-09-19T07:57:36.995Z,1019.65
2016-09-19T07:58:37.641Z,1019.71
2016-09-19T07:59:38.292Z,1019.71
2016-09-19T08:00:38.933Z,1019.75
2016-09-19T08:01:39.573Z,1019.76
2016-09-19T08:02:40.217Z,1019.78
2016-09-19T08:03:40.865Z,1019.8
2016-09-19T08:04:41.518Z,1019.81
2016-09-19T08:05:42.169Z,1019.82
2016-09-19T08:06:42.819Z,1019.82
2016-09-19T08:07:43.480Z,1019.84
2016-09-19T08:08:44.145Z,1019.86
2016-09-19T08:09:44.828Z,1019.85
2016-09-19T08:10:45.474Z,1019.87
2016-09-19T08:11:46.122Z,1019.91
2016-09-19T08:12:46.793Z,1019.87
2016-09-19T08:13:47.440Z,1019.93
2016-09-19T08:14:48.089Z,1019.91
2016-09-19T08:15:48.765Z,1019.92
2016-09-19T08:16:49.413Z,1019.93
2016-09-19T08:17:50.073Z,1019.91
2016-09-19T08:18:50.725Z,1019.97
2016-09-19T08:19:51.374Z,1019.94
2016-09-19T08:20:52.018Z,1019.97
2016-09-19T08:21:52.663Z,1020
2016-09-19T08:22:53.313Z,1020.01
2016-09-19T08:23:53.957Z,1020
2016-09-19T08:24:54.618Z,1020.03
2016-09-19T08:25:55.255Z,1020
2016-09-19T08:26:55.894Z,1020.04
2016-09-19T08:27:56.586Z,1020.06
2016-09-19T08:28:57.235Z,1020.06
2016-09-19T08:29:57.906Z,1020.06
2016-09-19T08:30:58.548Z,1020.03
2016-09-19T08:31:59.215Z,1020.07
2016-09-19T08:32:59.863Z,1020.08
2016-09-19T08:34:00.523Z,1020.08
2016-09-19T08:35:01.173Z,1020.09
2016-09-19T08:36:01.833Z,1020.14
2016-09-19T08:37:02.492Z,1020.14
2016-09-19T08:38:03.141Z,1020.16
2016-09-19T08:39:03.778Z,1020.14
2016-09-19T08:40:04.443Z,1020.17
2016-09-19T08:41:05.116Z,1020.21
2016-09-19T08:42:05.772Z,1020.18
2016-09-19T08:43:06.419Z,1020.16
2016-09-19T08:44:07.064Z,1020.2
2016-09-19T08:45:07.702Z,1020.22
2016-09-19T08:46:08.370Z,1020.21
2016-09-19T08:47:09.015Z,1020.21
2016-09-19T08:48:09.668Z,1020.22
2016-09-19T08:49:10.335Z,1020.17
2016-09-19T08:50:10.987Z,1020.21
2016-09-19T08:51:11.636Z,1020.25
2016-09-19T08:52:12.316Z,1020.22
2016-09-19T08:53:13.036Z,1020.21
2016-09-19T08:54:13.656Z,1020.21
2016-09-19T08:55:14.300Z,1020.23
2016-09-19T08:56:14.961Z,1020.24
2016-09-19T08:57:15.613Z,1020.27
2016-09-19T08:58:16.297Z,1020.25
2016-09-19T08:59:16.959Z,1020.27
2016-09-19T09:00:17.618Z,1020.27
2016-09-19T09:01:18.256Z,1020.29
2016-09-19T09:02:18.944Z,1020.29
2016-09-19T09:03:19.622Z,1020.28
2016-09-19T09:04:20.283Z,1020.28
2016-09-19T09:05:20.960Z,1020.35
2016-09-19T09:06:21.603Z,1020.35
2016-09-19T09:07:22.256Z,1020.31
2016-09-19T09:09:23.565Z,1020.31
2016-09-19T09:10:24.227Z,1020.38
2016-09-19T09:11:24.900Z,1020.37
2016-09-19T09:12:25.573Z,1020.33
2016-09-19T09:13:26.238Z,1020.32
2016-09-19T09:14:26.897Z,1020.32
2016-09-19T09:15:27.542Z,1020.36
2016-09-19T09:16:28.201Z,1020.34
2016-09-19T09:17:28.878Z,1020.33
2016-09-19T09:18:29.551Z,1020.31
2016-09-19T09:19:30.199Z,1020.29
2016-09-19T09:20:30.845Z,1020.32
2016-09-19T09:21:31.501Z,1020.3
2016-09-19T09:22:32.162Z,1020.34
2016-09-19T09:23:32.813Z,1020.33
2016-09-19T09:24:33.465Z,1020.37
2016-09-19T09:25:34.129Z,1020.35
2016-09-19T09:26:34.781Z,1020.38
2016-09-19T09:27:35.454Z,1020.34
2016-09-19T09:28:36.112Z,1020.33
2016-09-19T09:29:36.770Z,1020.32
2016-09-19T09:30:37.444Z,1020.34
2016-09-19T09:31:38.093Z,1020.34
2016-09-19T09:32:38.938Z,1020.37
2016-09-19T09:33:39.821Z,1020.38
2016-09-19T09:34:40.531Z,1020.35
2016-09-19T09:35:41.262Z,1020.29
2016-09-19T09:36:42.027Z,1020.36
2016-09-19T09:37:42.750Z,1020.36
2016-09-19T09:38:43.404Z,1020.28
2016-09-19T09:39:44.077Z,1020.32
2016-09-19T09:40:44.732Z,1020.3
2016-09-19T09:41:45.394Z,1020.35
2016-09-19T09:42:46.048Z,1020.31
2016-09-19T09:43:46.715Z,1020.32
2016-09-19T09:44:47.446Z,1020.28
2016-09-19T09:45:48.102Z,1020.27
2016-09-19T09:46:48.809Z,1020.29
2016-09-19T09:47:49.453Z,1020.32
2016-09-19T09:48:50.109Z,1020.28
2016-09-19T09:49:50.766Z,1020.3
2016-09-19T09:50:51.420Z,1020.3
2016-09-19T09:51:52.074Z,1020.31
2016-09-19T09:52:52.732Z,1020.27
2016-09-19T09:53:53.377Z,1020.22
2016-09-19T09:54:54.022Z,1020.27
2016-09-19T09:55:54.727Z,1020.27
2016-09-19T09:56:55.381Z,1020.22
2016-09-19T09:57:56.038Z,1020.23
2016-09-19T09:58:56.693Z,1020.21
2016-09-19T09:59:57.353Z,1020.25
2016-09-19T10:00:58.034Z,1020.22
2016-09-19T10:01:58.656Z,1020.21
2016-09-19T10:02:59.581Z,1020.19
2016-09-19T10:04:00.213Z,1020.21
2016-09-19T10:05:00.867Z,1020.21
2016-09-19T10:06:01.517Z,1020.19
2016-09-19T10:07:02.183Z,1020.21
2016-09-19T10:08:02.837Z,1020.19
2016-09-19T10:09:03.532Z,1020.22
2016-09-19T10:10:04.177Z,1020.22
2016-09-19T10:11:04.828Z,1020.18
2016-09-19T10:12:05.482Z,1020.14
2016-09-19T10:13:06.142Z,1020.14
2016-09-19T10:14:06.799Z,1020.17
2016-09-19T10:15:07.452Z,1020.13
2016-09-19T10:16:08.389Z,1020.07
2016-09-19T10:17:09.354Z,1020.16
2016-09-19T10:18:10.004Z,1020.1
2016-09-19T10:19:10.680Z,1020.12
2016-09-19T10:20:11.348Z,1020.12
2016-09-19T10:21:12.006Z,1020.09
2016-09-19T10:22:12.675Z,1020.06
2016-09-19T10:23:13.347Z,1020.05
2016-09-19T10:24:14.005Z,1020.07
2016-09-19T10:25:15.604Z,1020.08
2016-09-19T10:26:16.252Z,1020.1
2016-09-19T10:27:16.939Z,1020.03
2016-09-19T10:28:17.595Z,1020.13
2016-09-19T10:29:18.251Z,1020.07
2016-09-19T10:30:18.890Z,1020.09
2016-09-19T10:31:19.547Z,1020.08
2016-09-19T10:32:20.190Z,1020.12
2016-09-19T10:33:20.850Z,1020.14
2016-09-19T10:34:21.524Z,1020.1
2016-09-19T10:35:22.193Z,1020.07
2016-09-19T10:36:22.870Z,1020.04
2016-09-19T10:37:23.552Z,1020.06
2016-09-19T10:38:24.220Z,1020.03
2016-09-19T10:39:24.894Z,1020.01
2016-09-19T10:40:25.575Z,1020
2016-09-19T10:41:26.250Z,1020.03
2016-09-19T10:42:26.888Z,1020
2016-09-19T10:43:27.542Z,1020.04
2016-09-19T10:44:28.201Z,1019.95
2016-09-19T10:45:28.873Z,1020.05
2016-09-19T10:46:29.524Z,1020.03
2016-09-19T10:47:30.172Z,1020.04
2016-09-19T10:48:30.825Z,1020.07
2016-09-19T10:49:31.483Z,1020.03
2016-09-19T10:50:32.147Z,1020.06
2016-09-19T10:51:32.803Z,1020.04
2016-09-19T10:52:33.446Z,1019.99
2016-09-19T10:53:34.098Z,1019.99
2016-09-19T10:54:34.734Z,1019.97
2016-09-19T10:55:35.445Z,1019.99
2016-09-19T10:56:36.112Z,1019.98
2016-09-19T10:57:36.790Z,1019.97
2016-09-19T10:58:37.454Z,1019.93
2016-09-19T10:59:38.155Z,1019.95
2016-09-19T11:00:38.860Z,1019.92
2016-09-19T11:01:39.504Z,1019.96
2016-09-19T11:02:40.161Z,1019.96
2016-09-19T11:03:40.808Z,1019.94
2016-09-19T11:04:41.485Z,1019.94
2016-09-19T11:05:42.208Z,1019.96
2016-09-19T11:06:42.850Z,1019.95
2016-09-19T11:07:43.509Z,1019.96
2016-09-19T11:08:44.164Z,1019.96
2016-09-19T11:09:44.835Z,1019.99
2016-09-19T11:10:45.584Z,1020
2016-09-19T11:11:46.207Z,1019.98
2016-09-19T11:12:46.862Z,1020.03
2016-09-19T11:13:47.568Z,1020.01
2016-09-19T11:14:48.232Z,1020.01
2016-09-19T11:15:48.893Z,1020
2016-09-19T11:16:49.579Z,1020
2016-09-19T11:17:50.452Z,1020
2016-09-19T11:18:51.148Z,1019.96
2016-09-19T11:19:51.878Z,1019.94
2016-09-19T11:20:52.536Z,1019.89
2016-09-19T11:21:53.210Z,1019.92
2016-09-19T11:22:53.863Z,1019.87
2016-09-19T11:23:54.526Z,1019.88
2016-09-19T11:24:55.185Z,1019.87
2016-09-19T11:25:55.924Z,1019.9
2016-09-19T11:26:56.813Z,1019.92
2016-09-19T11:27:57.478Z,1019.9
2016-09-19T11:28:58.145Z,1019.84
2016-09-19T11:29:58.817Z,1019.86
2016-09-19T11:30:59.523Z,1019.84
2016-09-19T11:32:00.183Z,1019.85
2016-09-19T11:33:00.908Z,1019.85
2016-09-19T11:34:01.616Z,1019.85
2016-09-19T11:35:02.292Z,1019.92
2016-09-19T11:36:03.795Z,1019.89
2016-09-19T11:37:04.476Z,1019.9
2016-09-19T11:38:05.147Z,1019.88
2016-09-19T11:39:05.806Z,1019.89
2016-09-19T11:40:06.599Z,1019.91
2016-09-19T11:41:07.301Z,1019.88
2016-09-19T11:42:07.999Z,1019.91
2016-09-19T11:43:08.647Z,1019.92
2016-09-19T11:44:09.345Z,1019.92
2016-09-19T11:45:10.004Z,1019.91
2016-09-19T11:46:10.666Z,1019.91
2016-09-19T11:47:11.330Z,1019.91
2016-09-19T11:48:11.994Z,1019.91
2016-09-19T11:49:12.645Z,1019.85
2016-09-19T11:50:13.298Z,1019.89
2016-09-19T11:51:13.950Z,1019.9
2016-09-19T11:52:14.600Z,1019.88
2016-09-19T11:53:15.237Z,1019.86
2016-09-19T11:54:15.907Z,1019.86
2016-09-19T11:55:16.557Z,1019.87
2016-09-19T11:56:17.201Z,1019.85
2016-09-19T11:57:17.865Z,1019.83
2016-09-19T11:58:18.531Z,1019.79
2016-09-19T11:59:19.169Z,1019.78
2016-09-19T12:00:19.817Z,1019.81
2016-09-19T12:01:20.468Z,1019.78
2016-09-19T12:02:21.124Z,1019.73
2016-09-19T12:03:21.805Z,1019.75
2016-09-19T12:04:22.455Z,1019.72
2016-09-19T12:05:23.119Z,1019.71
2016-09-19T12:06:23.780Z,1019.73
2016-09-19T12:07:24.451Z,1019.66
2016-09-19T12:08:25.127Z,1019.68
2016-09-19T12:09:25.793Z,1019.72
2016-09-19T12:10:26.450Z,1019.65
2016-09-19T12:11:27.102Z,1019.65
2016-09-19T12:12:27.785Z,1019.69
2016-09-19T12:13:28.450Z,1019.66
2016-09-19T12:14:29.108Z,1019.66
2016-09-19T12:15:29.850Z,1019.62
2016-09-19T12:16:30.507Z,1019.62
2016-09-19T12:17:31.188Z,1019.63